createdAt,value
2023-04-16T00:01:41.811Z,0.20
2023-04-16T00:04:09.796Z,0.32
2023-04-16T00:06:37.698Z,0.43
2023-04-16T00:09:05.494Z,0.35
2023-04-16T00:11:33.369Z,0.22
2023-04-16T00:14:01.275Z,0.70
2023-04-16T00:16:30.571Z,0.35
2023-04-16T00:18:58.385Z,0.60
2023-04-16T00:21:26.393Z,0.47
2023-04-16T00:23:54.174Z,0.30
2023-04-16T00:26:21.960Z,0.20
2023-04-16T00:28:49.924Z,0.20
2023-04-16T00:31:17.623Z,0.50
2023-04-16T00:33:47.060Z,0.32
2023-04-16T00:36:14.845Z,0.38
2023-04-16T00:38:42.728Z,0.30
2023-04-16T00:41:10.349Z,0.40
2023-04-16T00:43:38.054Z,0.40
2023-04-16T00:46:06.634Z,0.60
2023-04-16T00:48:34.821Z,0.38
2023-04-16T00:51:05.862Z,0.60
2023-04-16T00:53:34.446Z,0.40
2023-04-16T00:56:03.473Z,0.40
2023-04-16T00:58:31.710Z,0.20
2023-04-16T01:00:59.622Z,0.10
2023-04-16T01:03:31.864Z,0.50
2023-04-16T01:05:59.664Z,0.30
2023-04-16T01:08:28.955Z,0.20
2023-04-16T01:10:56.770Z,0.30
2023-04-16T01:13:24.642Z,0.40
2023-04-16T01:15:52.839Z,0.20
2023-04-16T01:18:21.450Z,0.30
2023-04-16T01:20:51.464Z,0.40
2023-04-16T01:23:19.694Z,0.65
2023-04-16T01:25:47.816Z,0.40
2023-04-16T01:28:15.997Z,0.43
2023-04-16T01:30:44.465Z,0.30
2023-04-16T01:33:30.705Z,0.40
2023-04-16T01:35:59.893Z,0.40
2023-04-16T01:38:27.767Z,0.50
2023-04-16T01:40:56.887Z,0.30
2023-04-16T01:43:24.516Z,0.30
2023-04-16T01:45:53.068Z,0.38
2023-04-16T01:48:20.819Z,0.35
2023-04-16T01:50:48.606Z,0.35
2023-04-16T01:53:17.701Z,0.50
2023-04-16T01:55:45.364Z,0.10
2023-04-16T01:58:14.886Z,0.20
2023-04-16T02:00:42.932Z,0.30
2023-04-16T02:03:10.935Z,0.25
2023-04-16T02:05:38.993Z,0.35
2023-04-16T02:08:07.163Z,0.30
2023-04-16T02:10:36.252Z,0.40
2023-04-16T02:13:04.123Z,0.28
2023-04-16T02:15:31.980Z,0.25
2023-04-16T02:18:00.498Z,0.40
2023-04-16T02:20:29.061Z,0.50
2023-04-16T02:23:00.914Z,0.38
2023-04-16T02:25:29.367Z,0.45
2023-04-16T02:28:00.168Z,0.28
2023-04-16T02:30:40.992Z,0.20
2023-04-16T02:33:10.535Z,0.30
2023-04-16T02:35:40.960Z,0.40
2023-04-16T02:38:09.075Z,0.32
2023-04-16T02:40:37.151Z,0.20
2023-04-16T02:43:06.761Z,0.35
2023-04-16T02:45:34.597Z,0.28
2023-04-16T02:48:02.418Z,0.35
2023-04-16T02:50:30.401Z,0.50
2023-04-16T02:52:58.210Z,0.45
2023-04-16T02:55:26.150Z,0.90
2023-04-16T02:57:54.162Z,0.60
2023-04-16T03:00:23.404Z,0.20
2023-04-16T03:02:51.423Z,0.20
2023-04-16T03:05:19.605Z,0.30
2023-04-16T03:07:47.714Z,0.30
2023-04-16T03:10:16.759Z,0.35
2023-04-16T03:12:44.664Z,0.50
2023-04-16T03:15:12.690Z,0.80
2023-04-16T03:17:41.769Z,0.55
2023-04-16T03:20:11.196Z,0.57
2023-04-16T03:22:39.426Z,0.40
2023-04-16T03:25:07.919Z,0.30
2023-04-16T03:27:35.669Z,0.43
2023-04-16T03:30:04.750Z,0.38
2023-04-16T03:32:34.802Z,0.40
2023-04-16T03:35:06.036Z,0.40
2023-04-16T03:37:34.439Z,0.52
2023-04-16T03:40:02.238Z,0.38
2023-04-16T03:42:30.157Z,0.65
2023-04-16T03:44:59.470Z,0.40
2023-04-16T03:47:27.836Z,0.45
2023-04-16T03:49:59.559Z,0.30
2023-04-16T03:52:29.823Z,0.30
2023-04-16T03:54:58.186Z,0.40
2023-04-16T03:57:28.675Z,0.45
2023-04-16T04:00:01.867Z,0.50
2023-04-16T04:02:42.259Z,0.38
2023-04-16T04:05:17.865Z,0.30
2023-04-16T04:07:48.766Z,0.75
2023-04-16T04:10:16.923Z,0.50
2023-04-16T04:12:44.914Z,0.50
2023-04-16T04:15:13.508Z,0.32
2023-04-16T04:17:43.411Z,0.30
2023-04-16T04:20:12.240Z,0.40
2023-04-16T04:22:41.636Z,0.63
2023-04-16T04:25:11.345Z,0.63
2023-04-16T04:27:39.208Z,0.65
2023-04-16T04:30:07.689Z,0.25
2023-04-16T04:32:36.300Z,0.40
2023-04-16T04:35:04.400Z,0.20
2023-04-16T04:37:32.366Z,0.30
2023-04-16T04:40:04.058Z,0.22
2023-04-16T04:42:33.178Z,0.60
2023-04-16T04:45:01.221Z,0.20
2023-04-16T04:47:32.066Z,0.40
2023-04-16T04:49:59.893Z,0.32
2023-04-16T04:52:28.186Z,0.30
2023-04-16T04:54:56.374Z,0.50
2023-04-16T04:57:24.190Z,0.47
2023-04-16T04:59:56.609Z,0.50
2023-04-16T05:02:24.562Z,0.50
2023-04-16T05:04:52.407Z,0.45
2023-04-16T05:07:20.308Z,0.80
2023-04-16T05:09:48.015Z,0.50
2023-04-16T05:12:15.688Z,0.50
2023-04-16T05:14:43.449Z,0.30
2023-04-16T05:17:12.644Z,0.17
2023-04-16T05:19:40.511Z,0.50
2023-04-16T05:22:08.321Z,0.38
2023-04-16T05:24:36.119Z,0.50
2023-04-16T05:27:04.091Z,0.30
2023-04-16T05:29:31.957Z,0.30
2023-04-16T05:31:59.723Z,0.57
2023-04-16T05:34:29.494Z,0.20
2023-04-16T05:36:57.237Z,0.47
2023-04-16T05:39:24.968Z,0.38
2023-04-16T05:41:52.828Z,0.30
2023-04-16T05:44:20.521Z,0.47
2023-04-16T05:46:48.261Z,0.35
2023-04-16T05:49:18.813Z,0.20
2023-04-16T05:51:49.703Z,0.68
2023-04-16T05:54:18.527Z,0.38
2023-04-16T05:56:46.269Z,0.20
2023-04-16T05:59:14.026Z,0.45
2023-04-16T06:01:42.236Z,0.25
2023-04-16T06:04:10.154Z,0.20
2023-04-16T06:06:38.583Z,0.40
2023-04-16T06:09:07.908Z,0.20
2023-04-16T06:11:36.562Z,0.40
2023-04-16T06:14:04.257Z,0.35
2023-04-16T06:16:31.998Z,0.40
2023-04-16T06:18:59.744Z,0.50
2023-04-16T06:21:28.246Z,0.85
2023-04-16T06:23:56.025Z,0.32
2023-04-16T06:26:25.234Z,0.40
2023-04-16T06:28:53.003Z,0.50
2023-04-16T06:31:20.871Z,0.38
2023-04-16T06:33:48.849Z,0.40
2023-04-16T06:36:16.844Z,0.55
2023-04-16T06:38:44.658Z,0.32
2023-04-16T06:41:12.450Z,0.43
2023-04-16T06:43:41.746Z,0.20
2023-04-16T06:46:09.453Z,0.20
2023-04-16T06:48:37.217Z,0.20
2023-04-16T06:51:05.291Z,0.57
2023-04-16T06:53:33.459Z,0.40
2023-04-16T06:56:01.268Z,0.50
2023-04-16T06:58:29.136Z,0.47
2023-04-16T07:00:58.315Z,0.40
2023-04-16T07:03:26.482Z,0.57
2023-04-16T07:05:54.471Z,0.50
2023-04-16T07:08:22.288Z,0.40
2023-04-16T07:10:50.093Z,0.35
2023-04-16T07:13:18.698Z,0.43
2023-04-16T07:15:46.606Z,0.20
2023-04-16T07:18:15.911Z,0.80
2023-04-16T07:20:43.801Z,0.43
2023-04-16T07:23:11.678Z,0.20
2023-04-16T07:25:40.263Z,0.40
2023-04-16T07:28:07.911Z,0.68
2023-04-16T07:30:35.879Z,0.75
2023-04-16T07:33:04.068Z,0.60
2023-04-16T07:35:33.180Z,0.32
2023-04-16T07:38:00.770Z,0.80
2023-04-16T07:40:28.735Z,0.75
2023-04-16T07:42:56.606Z,0.30
2023-04-16T07:45:24.619Z,0.75
2023-04-16T07:47:52.538Z,0.50
2023-04-16T07:50:20.564Z,0.73
2023-04-16T07:52:49.862Z,0.73
2023-04-16T07:55:17.617Z,0.52
2023-04-16T07:57:45.624Z,0.45
2023-04-16T08:00:13.812Z,0.43
2023-04-16T08:02:42.036Z,1.10
2023-04-16T08:05:10.853Z,0.63
2023-04-16T08:07:38.740Z,0.63
2023-04-16T08:10:08.645Z,0.57
2023-04-16T08:12:36.356Z,0.50
2023-04-16T08:15:04.162Z,0.80
2023-04-16T08:17:33.230Z,0.70
2023-04-16T08:20:01.820Z,0.10
2023-04-16T08:22:29.664Z,0.85
2023-04-16T08:24:57.418Z,0.50
2023-04-16T08:27:26.508Z,0.68
2023-04-16T08:29:54.338Z,0.95
2023-04-16T08:32:22.304Z,0.60
2023-04-16T08:34:50.117Z,0.80
2023-04-16T08:37:17.875Z,0.65
2023-04-16T08:39:45.722Z,0.82
2023-04-16T08:42:14.481Z,0.90
2023-04-16T08:44:48.902Z,0.52
2023-04-16T08:47:17.313Z,1.02
2023-04-16T08:49:45.873Z,0.73
2023-04-16T08:52:16.454Z,1.88
2023-04-16T08:54:46.960Z,1.52
2023-04-16T08:57:28.138Z,1.90
2023-04-16T08:59:57.449Z,1.98
2023-04-16T09:02:27.108Z,1.98
2023-04-16T09:04:55.036Z,1.85
2023-04-16T09:07:23.001Z,1.52
2023-04-16T09:09:53.106Z,1.90
2023-04-16T09:12:23.324Z,1.75
2023-04-16T09:14:51.297Z,1.88
2023-04-16T09:17:20.773Z,2.05
2023-04-16T09:19:48.630Z,2.10
2023-04-16T09:22:17.235Z,2.15
2023-04-16T09:24:44.859Z,1.95
2023-04-16T09:27:13.264Z,2.00
2023-04-16T09:29:41.498Z,2.55
2023-04-16T09:32:10.238Z,2.30
2023-04-16T09:34:56.089Z,2.25
2023-04-16T09:37:24.034Z,2.67
2023-04-16T09:39:57.694Z,2.15
2023-04-16T09:42:27.453Z,3.10
2023-04-16T09:44:56.859Z,2.70
2023-04-16T09:47:27.202Z,2.75
2023-04-16T09:50:00.011Z,2.25
2023-04-16T09:52:27.873Z,2.70
2023-04-16T09:54:56.105Z,3.05
2023-04-16T09:57:24.793Z,2.80
2023-04-16T09:59:53.957Z,2.53
2023-04-16T10:02:23.289Z,2.47
2023-04-16T10:04:51.848Z,2.63
2023-04-16T10:07:21.674Z,2.88
2023-04-16T10:09:49.995Z,2.70
2023-04-16T10:12:17.862Z,2.42
2023-04-16T10:14:46.517Z,2.70
2023-04-16T10:17:16.821Z,2.75
2023-04-16T10:19:44.986Z,2.50
2023-04-16T10:22:12.909Z,2.70
2023-04-16T10:24:42.310Z,2.65
2023-04-16T10:27:10.095Z,3.00
2023-04-16T10:29:38.337Z,2.88
2023-04-16T10:32:07.692Z,2.65
2023-04-16T10:34:36.484Z,2.60
2023-04-16T10:37:04.259Z,2.53
2023-04-16T10:39:34.377Z,2.63
2023-04-16T10:42:09.970Z,3.03
2023-04-16T10:44:37.867Z,2.20
2023-04-16T10:47:11.622Z,2.70
2023-04-16T10:49:39.492Z,2.28
2023-04-16T10:52:11.359Z,1.23
2023-04-16T10:54:39.562Z,1.23
2023-04-16T10:57:08.257Z,1.67
2023-04-16T10:59:38.565Z,1.13
2023-04-16T11:02:08.655Z,1.70
2023-04-16T11:04:37.225Z,1.15
2023-04-16T11:07:06.019Z,1.27
2023-04-16T11:09:47.914Z,1.48
2023-04-16T11:12:16.674Z,1.50
2023-04-16T11:14:47.578Z,1.42
2023-04-16T11:17:15.533Z,0.80
2023-04-16T11:19:43.563Z,1.00
2023-04-16T11:22:13.221Z,2.03
2023-04-16T11:24:41.446Z,0.93
2023-04-16T11:27:09.532Z,1.05
2023-04-16T11:29:37.325Z,1.05
2023-04-16T11:32:06.699Z,0.98
2023-04-16T11:34:34.551Z,0.90
2023-04-16T11:37:02.418Z,1.27
2023-04-16T11:39:30.125Z,1.25
2023-04-16T11:41:57.820Z,1.17
2023-04-16T11:44:26.491Z,1.55
2023-04-16T11:46:54.577Z,0.80
2023-04-16T11:49:29.603Z,1.17
2023-04-16T11:51:58.174Z,1.30
2023-04-16T11:54:26.277Z,1.40
2023-04-16T11:56:54.681Z,1.25
2023-04-16T11:59:24.209Z,1.02
2023-04-16T12:01:52.959Z,1.17
2023-04-16T12:04:22.263Z,1.30
2023-04-16T12:07:10.485Z,1.48
2023-04-16T12:09:40.553Z,0.75
2023-04-16T12:12:26.187Z,0.95
2023-04-16T12:14:54.400Z,1.45
2023-04-16T12:17:22.534Z,1.00
2023-04-16T12:19:51.641Z,0.98
2023-04-16T12:22:27.316Z,1.00
2023-04-16T12:24:57.074Z,0.63
2023-04-16T12:27:28.527Z,0.75
2023-04-16T12:30:07.192Z,0.52
2023-04-16T12:32:34.960Z,0.90
2023-04-16T12:35:02.993Z,0.47
2023-04-16T12:37:32.226Z,0.88
2023-04-16T12:39:59.953Z,0.57
2023-04-16T12:42:27.594Z,0.60
2023-04-16T12:44:55.248Z,0.98
2023-04-16T12:47:22.842Z,0.68
2023-04-16T12:49:50.727Z,0.88
2023-04-16T12:52:18.375Z,1.13
2023-04-16T12:54:47.338Z,1.05
2023-04-16T12:57:14.921Z,1.08
2023-04-16T12:59:42.513Z,1.25
2023-04-16T13:02:10.397Z,0.98
2023-04-16T13:04:38.548Z,1.00
2023-04-16T13:07:07.941Z,0.40
2023-04-16T13:09:36.486Z,0.93
2023-04-16T13:12:07.249Z,0.70
2023-04-16T13:14:34.855Z,1.35
2023-04-16T13:17:03.875Z,1.23
2023-04-16T13:19:31.552Z,0.80
2023-04-16T13:21:59.220Z,1.08
2023-04-16T13:24:26.832Z,0.55
2023-04-16T13:26:56.318Z,0.77
2023-04-16T13:29:25.247Z,1.23
2023-04-16T13:31:53.238Z,1.33
2023-04-16T13:34:20.894Z,0.85
2023-04-16T13:36:48.519Z,0.90
2023-04-16T13:39:16.454Z,0.65
2023-04-16T13:41:44.143Z,1.25
2023-04-16T13:44:11.740Z,0.75
2023-04-16T13:46:43.508Z,0.95
2023-04-16T13:49:11.296Z,0.65
2023-04-16T13:51:39.089Z,0.80
2023-04-16T13:54:06.743Z,0.80
2023-04-16T13:56:34.731Z,1.15
2023-04-16T13:59:02.595Z,0.85
2023-04-16T14:01:30.224Z,0.63
2023-04-16T14:04:01.978Z,0.70
2023-04-16T14:06:29.609Z,0.98
2023-04-16T14:08:57.188Z,0.63
2023-04-16T14:11:24.765Z,0.80
2023-04-16T14:13:52.357Z,0.55
2023-04-16T14:16:20.047Z,1.10
2023-04-16T14:18:48.221Z,0.85
2023-04-16T14:21:17.374Z,1.02
2023-04-16T14:23:45.300Z,0.77
2023-04-16T14:26:12.991Z,0.55
2023-04-16T14:28:41.263Z,0.80
2023-04-16T14:31:09.176Z,1.27
2023-04-16T14:33:36.951Z,1.20
2023-04-16T14:36:05.062Z,0.50
2023-04-16T14:38:34.717Z,0.70
2023-04-16T14:41:02.535Z,1.23
2023-04-16T14:43:30.961Z,0.82
2023-04-16T14:46:00.015Z,0.85
2023-04-16T14:48:27.902Z,0.73
2023-04-16T14:50:55.828Z,0.90
2023-04-16T14:53:24.207Z,0.60
2023-04-16T14:55:54.369Z,0.50
2023-04-16T14:58:22.688Z,0.90
2023-04-16T15:00:50.605Z,0.85
2023-04-16T15:03:18.628Z,0.90
2023-04-16T15:05:50.833Z,0.90
2023-04-16T15:08:18.754Z,1.27
2023-04-16T15:10:46.683Z,1.15
2023-04-16T15:13:15.957Z,0.88
2023-04-16T15:15:43.852Z,1.05
2023-04-16T15:18:11.622Z,0.70
2023-04-16T15:20:39.481Z,1.15
2023-04-16T15:23:07.286Z,0.55
2023-04-16T15:25:35.066Z,0.93
2023-04-16T15:28:03.081Z,1.58
2023-04-16T15:30:32.991Z,0.50
2023-04-16T15:33:00.772Z,0.68
2023-04-16T15:35:28.616Z,0.70
2023-04-16T15:37:56.343Z,0.70
2023-04-16T15:40:23.960Z,1.38
2023-04-16T15:42:51.701Z,0.93
2023-04-16T15:45:19.770Z,0.57
2023-04-16T15:47:51.344Z,0.90
2023-04-16T15:50:19.579Z,0.82
2023-04-16T15:52:47.427Z,1.20
2023-04-16T15:55:15.942Z,1.27
2023-04-16T15:57:43.968Z,0.63
2023-04-16T16:00:15.087Z,0.95
2023-04-16T16:02:43.457Z,1.08
2023-04-16T16:05:13.718Z,0.60
2023-04-16T16:07:41.569Z,0.80
2023-04-16T16:10:10.057Z,0.85
2023-04-16T16:12:37.962Z,1.05
2023-04-16T16:15:06.501Z,0.82
2023-04-16T16:17:34.487Z,0.50
2023-04-16T16:20:02.406Z,0.85
2023-04-16T16:22:31.789Z,1.17
2023-04-16T16:24:59.599Z,0.55
2023-04-16T16:27:27.462Z,1.17
2023-04-16T16:29:55.470Z,0.80
2023-04-16T16:32:23.685Z,0.50
2023-04-16T16:34:51.618Z,1.20
2023-04-16T16:37:19.374Z,0.90
2023-04-16T16:39:48.479Z,0.90
2023-04-16T16:42:18.722Z,1.73
2023-04-16T16:44:46.791Z,0.75
2023-04-16T16:47:14.678Z,0.98
2023-04-16T16:49:42.386Z,1.27
2023-04-16T16:52:10.250Z,1.48
2023-04-16T16:54:38.037Z,0.93
2023-04-16T16:57:07.417Z,0.90
2023-04-16T16:59:35.329Z,1.65
2023-04-16T17:02:04.120Z,0.57
2023-04-16T17:04:32.014Z,0.55
2023-04-16T17:06:59.968Z,1.02
2023-04-16T17:09:27.989Z,0.82
2023-04-16T17:11:56.967Z,1.17
2023-04-16T17:14:26.124Z,0.82
2023-04-16T17:16:53.818Z,0.45
2023-04-16T17:19:21.865Z,0.63
2023-04-16T17:21:49.792Z,1.17
2023-04-16T17:24:17.925Z,0.80
2023-04-16T17:26:46.226Z,0.73
2023-04-16T17:29:14.147Z,0.52
2023-04-16T17:31:43.470Z,0.88
2023-04-16T17:34:11.674Z,1.40
2023-04-16T17:36:39.651Z,0.95
2023-04-16T17:39:07.466Z,1.48
2023-04-16T17:41:35.326Z,1.30
2023-04-16T17:44:03.086Z,1.60
2023-04-16T17:46:31.029Z,1.58
2023-04-16T17:49:00.073Z,0.70
2023-04-16T17:51:28.238Z,1.60
2023-04-16T17:53:55.987Z,1.13
2023-04-16T17:56:23.805Z,1.10
2023-04-16T17:58:51.725Z,1.50
2023-04-16T18:01:19.617Z,1.33
2023-04-16T18:03:47.841Z,1.77
2023-04-16T18:06:17.323Z,2.20
2023-04-16T18:08:45.030Z,1.98
2023-04-16T18:11:13.222Z,2.45
2023-04-16T18:13:40.867Z,1.55
2023-04-16T18:16:14.693Z,2.03
2023-04-16T18:18:42.378Z,1.90
2023-04-16T18:21:10.350Z,1.88
2023-04-16T18:23:39.482Z,1.63
2023-04-16T18:26:08.489Z,1.88
2023-04-16T18:28:37.015Z,2.60
2023-04-16T18:31:06.774Z,2.30
2023-04-16T18:33:54.120Z,2.22
2023-04-16T18:36:22.344Z,2.78
2023-04-16T18:39:00.938Z,3.55
2023-04-16T18:41:29.852Z,3.10
2023-04-16T18:43:57.603Z,2.67
2023-04-16T18:46:25.577Z,2.45
2023-04-16T18:48:53.522Z,3.25
2023-04-16T18:51:21.419Z,3.50
2023-04-16T18:53:49.216Z,3.40
2023-04-16T18:56:18.390Z,3.15
2023-04-16T18:58:47.746Z,3.63
2023-04-16T19:01:16.460Z,1.60
2023-04-16T19:03:44.402Z,1.30
2023-04-16T19:06:12.213Z,1.33
2023-04-16T19:08:40.014Z,1.75
2023-04-16T19:11:07.888Z,0.80
2023-04-16T19:13:38.167Z,1.35
2023-04-16T19:16:11.280Z,1.42
2023-04-16T19:18:39.337Z,0.98
2023-04-16T19:21:07.594Z,1.25
2023-04-16T19:23:35.771Z,1.40
2023-04-16T19:26:03.778Z,0.98
2023-04-16T19:28:32.263Z,1.48
2023-04-16T19:31:01.515Z,1.30
2023-04-16T19:33:29.313Z,1.02
2023-04-16T19:35:57.103Z,0.68
2023-04-16T19:38:24.933Z,1.45
2023-04-16T19:40:52.822Z,1.40
2023-04-16T19:43:20.640Z,0.95
2023-04-16T19:45:52.358Z,1.20
2023-04-16T19:48:21.610Z,0.65
2023-04-16T19:50:49.563Z,0.95
2023-04-16T19:53:17.730Z,0.70
2023-04-16T19:55:45.603Z,1.30
2023-04-16T19:58:14.619Z,0.80
2023-04-16T20:00:42.485Z,1.48
2023-04-16T20:03:10.357Z,1.30
2023-04-16T20:05:39.312Z,0.88
2023-04-16T20:08:07.275Z,1.30
2023-04-16T20:10:35.141Z,1.13
2023-04-16T20:13:02.953Z,1.10
2023-04-16T20:15:30.709Z,1.20
2023-04-16T20:17:58.594Z,1.10
2023-04-16T20:20:26.338Z,1.20
2023-04-16T20:22:55.744Z,1.60
2023-04-16T20:25:26.287Z,0.90
2023-04-16T20:27:54.122Z,1.23
2023-04-16T20:30:22.684Z,2.15
2023-04-16T20:32:50.570Z,1.58
2023-04-16T20:35:18.429Z,1.13
2023-04-16T20:37:46.604Z,0.70
2023-04-16T20:40:16.482Z,1.13
2023-04-16T20:42:46.529Z,2.10
2023-04-16T20:45:14.415Z,1.48
2023-04-16T20:47:43.554Z,1.77
2023-04-16T20:50:12.254Z,1.58
2023-04-16T20:52:40.224Z,1.23
2023-04-16T20:55:08.738Z,1.77
2023-04-16T20:57:38.116Z,0.75
2023-04-16T21:00:10.311Z,1.10
2023-04-16T21:02:38.280Z,1.02
2023-04-16T21:05:09.173Z,0.90
2023-04-16T21:07:36.980Z,1.13
2023-04-16T21:10:05.129Z,1.75
2023-04-16T21:12:32.776Z,1.20
2023-04-16T21:15:01.775Z,1.90
2023-04-16T21:17:30.074Z,1.20
2023-04-16T21:19:57.742Z,1.48
2023-04-16T21:22:26.064Z,1.77
2023-04-16T21:24:53.738Z,2.00
2023-04-16T21:27:21.411Z,1.73
2023-04-16T21:29:49.091Z,0.93
2023-04-16T21:32:18.291Z,1.48
2023-04-16T21:34:46.260Z,1.90
2023-04-16T21:37:13.980Z,1.92
2023-04-16T21:39:41.661Z,2.03
2023-04-16T21:42:09.341Z,1.33
2023-04-16T21:44:36.972Z,0.85
2023-04-16T21:47:05.053Z,1.10
2023-04-16T21:49:34.415Z,1.23
2023-04-16T21:52:02.562Z,1.45
2023-04-16T21:54:30.577Z,1.52
2023-04-16T21:56:58.725Z,0.93
2023-04-16T21:59:26.604Z,1.48
2023-04-16T22:01:54.576Z,1.23
2023-04-16T22:04:26.386Z,1.30
2023-04-16T22:06:57.163Z,1.38
2023-04-16T22:09:25.942Z,1.52
2023-04-16T22:11:53.763Z,2.00
2023-04-16T22:14:21.542Z,0.93
2023-04-16T22:16:49.896Z,1.85
2023-04-16T22:19:17.743Z,1.58
2023-04-16T22:21:45.409Z,1.58
2023-04-16T22:24:14.624Z,2.05
2023-04-16T22:26:42.398Z,1.50
2023-04-16T22:29:10.417Z,2.13
2023-04-16T22:31:38.455Z,1.88
2023-04-16T22:34:06.266Z,1.45
2023-04-16T22:36:33.967Z,1.20
2023-04-16T22:39:01.711Z,1.45
2023-04-16T22:41:30.905Z,1.17
2023-04-16T22:43:58.660Z,2.10
2023-04-16T22:46:27.344Z,1.73
2023-04-16T22:48:55.330Z,1.17
2023-04-16T22:51:24.446Z,1.83
2023-04-16T22:53:52.628Z,1.20
2023-04-16T22:56:21.440Z,1.58
2023-04-16T22:58:50.617Z,1.67
2023-04-16T23:01:18.500Z,1.45
2023-04-16T23:03:46.390Z,1.83
2023-04-16T23:06:14.235Z,1.50
2023-04-16T23:08:41.936Z,2.72
2023-04-16T23:11:09.799Z,1.92
2023-04-16T23:13:37.840Z,1.27
2023-04-16T23:16:07.794Z,1.52
2023-04-16T23:18:35.679Z,1.52
2023-04-16T23:21:03.557Z,1.67
2023-04-16T23:23:31.316Z,1.58
2023-04-16T23:26:00.948Z,1.77
2023-04-16T23:28:28.529Z,1.23
2023-04-16T23:30:56.399Z,1.00
2023-04-16T23:33:25.801Z,1.77
2023-04-16T23:35:53.568Z,1.58
2023-04-16T23:38:21.450Z,1.38
2023-04-16T23:40:49.449Z,2.45
2023-04-16T23:43:17.215Z,1.70
2023-04-16T23:45:45.032Z,1.25
2023-04-16T23:48:13.041Z,1.35
2023-04-16T23:50:42.252Z,1.77
2023-04-16T23:53:09.946Z,1.98
2023-04-16T23:55:37.805Z,2.13
2023-04-16T23:58:05.673Z,1.90
